sensor_id;sensor_type;location;lat;lon;timestamp;pressure;altitude;pressure_sealevel;temperature;humidity
10658;BME280;5377;43.276;26.930;2023-03-15T00:00:51;98228.38;;;3.94;97.87
10658;BME280;5377;43.276;26.930;2023-03-15T00:03:21;98220.53;;;3.86;99.44
10658;BME280;5377;43.276;26.930;2023-03-15T00:05:50;98217.34;;;3.90;100.00
10658;BME280;5377;43.276;26.930;2023-03-15T00:08:18;98218.34;;;3.89;100.00
10658;BME280;5377;43.276;26.930;2023-03-15T00:10:47;98216.50;;;3.75;100.00
10658;BME280;5377;43.276;26.930;2023-03-15T00:13:15;98212.56;;;4.00;100.00
10658;BME280;5377;43.276;26.930;2023-03-15T00:15:47;98207.53;;;4.05;100.00
10658;BME280;5377;43.276;26.930;2023-03-15T00:18:15;98145.00;;;3.75;99.87
10658;BME280;5377;43.276;26.930;2023-03-15T00:20:43;98204.06;;;4.05;100.00
10658;BME280;5377;43.276;26.930;2023-03-15T00:23:11;98196.13;;;4.05;100.00
10658;BME280;5377;43.276;26.930;2023-03-15T00:25:39;98189.28;;;3.96;100.00
10658;BME280;5377;43.276;26.930;2023-03-15T00:28:06;98186.91;;;4.01;100.00
10658;BME280;5377;43.276;26.930;2023-03-15T00:30:32;98191.47;;;3.92;100.00
10658;BME280;5377;43.276;26.930;2023-03-15T00:32:59;98189.47;;;3.94;100.00
10658;BME280;5377;43.276;26.930;2023-03-15T00:35:26;98186.63;;;3.96;100.00
10658;BME280;5377;43.276;26.930;2023-03-15T00:37:55;98186.56;;;3.89;100.00
10658;BME280;5377;43.276;26.930;2023-03-15T00:40:22;98186.56;;;3.89;100.00
10658;BME280;5377;43.276;26.930;2023-03-15T00:42:49;98188.13;;;3.84;100.00
10658;BME280;5377;43.276;26.930;2023-03-15T00:45:17;98181.69;;;3.78;100.00
10658;BME280;5377;43.276;26.930;2023-03-15T00:47:44;98182.50;;;3.79;100.00
10658;BME280;5377;43.276;26.930;2023-03-15T00:50:10;98171.22;;;3.85;100.00
10658;BME280;5377;43.276;26.930;2023-03-15T00:52:37;98177.16;;;3.87;100.00
10658;BME280;5377;43.276;26.930;2023-03-15T00:55:10;98161.00;;;3.82;100.00
10658;BME280;5377;43.276;26.930;2023-03-15T00:57:39;98155.69;;;3.82;100.00
10658;BME280;5377;43.276;26.930;2023-03-15T01:00:07;98149.72;;;3.80;100.00
10658;BME280;5377;43.276;26.930;2023-03-15T01:02:34;98147.66;;;3.60;100.00
10658;BME280;5377;43.276;26.930;2023-03-15T01:05:02;98141.34;;;3.76;100.00
10658;BME280;5377;43.276;26.930;2023-03-15T01:07:29;98132.50;;;3.84;100.00
10658;BME280;5377;43.276;26.930;2023-03-15T01:09:57;98134.03;;;3.93;100.00
10658;BME280;5377;43.276;26.930;2023-03-15T01:12:27;98134.66;;;3.95;100.00
10658;BME280;5377;43.276;26.930;2023-03-15T01:14:54;98134.78;;;3.87;100.00
10658;BME280;5377;43.276;26.930;2023-03-15T01:17:20;98134.59;;;3.88;100.00
10658;BME280;5377;43.276;26.930;2023-03-15T01:19:47;98131.38;;;3.93;100.00
10658;BME280;5377;43.276;26.930;2023-03-15T01:22:15;98119.97;;;3.92;100.00
10658;BME280;5377;43.276;26.930;2023-03-15T01:24:42;98118.13;;;3.93;100.00
10658;BME280;5377;43.276;26.930;2023-03-15T01:27:09;98120.34;;;3.89;100.00
10658;BME280;5377;43.276;26.930;2023-03-15T01:29:37;98112.31;;;3.83;100.00
10658;BME280;5377;43.276;26.930;2023-03-15T01:32:05;98117.25;;;3.86;100.00
10658;BME280;5377;43.276;26.930;2023-03-15T01:34:32;98105.63;;;3.87;100.00
10658;BME280;5377;43.276;26.930;2023-03-15T01:36:59;98108.03;;;3.82;100.00
10658;BME280;5377;43.276;26.930;2023-03-15T01:39:27;98103.00;;;3.87;100.00
10658;BME280;5377;43.276;26.930;2023-03-15T01:41:54;98092.94;;;3.82;100.00
10658;BME280;5377;43.276;26.930;2023-03-15T01:44:20;98083.88;;;3.91;100.00
10658;BME280;5377;43.276;26.930;2023-03-15T01:46:49;98077.06;;;3.82;100.00
10658;BME280;5377;43.276;26.930;2023-03-15T01:49:18;98075.88;;;3.85;100.00
10658;BME280;5377;43.276;26.930;2023-03-15T01:51:50;98085.09;;;3.89;100.00
10658;BME280;5377;43.276;26.930;2023-03-15T01:54:24;98075.13;;;3.91;100.00
10658;BME280;5377;43.276;26.930;2023-03-15T01:56:56;98078.53;;;3.85;100.00
10658;BME280;5377;43.276;26.930;2023-03-15T01:59:27;98070.31;;;3.65;100.00
10658;BME280;5377;43.276;26.930;2023-03-15T02:01:57;98078.63;;;3.62;100.00
10658;BME280;5377;43.276;26.930;2023-03-15T02:04:31;98081.56;;;3.52;100.00
10658;BME280;5377;43.276;26.930;2023-03-15T02:07:00;98073.00;;;3.50;100.00
10658;BME280;5377;43.276;26.930;2023-03-15T02:09:33;98081.09;;;3.34;100.00
10658;BME280;5377;43.276;26.930;2023-03-15T02:12:03;98078.34;;;3.42;100.00
10658;BME280;5377;43.276;26.930;2023-03-15T02:14:31;98073.81;;;3.36;100.00
10658;BME280;5377;43.276;26.930;2023-03-15T02:16:59;98081.13;;;3.49;100.00
10658;BME280;5377;43.276;26.930;2023-03-15T02:19:38;98076.66;;;3.49;100.00
10658;BME280;5377;43.276;26.930;2023-03-15T02:22:15;98074.81;;;3.50;100.00
10658;BME280;5377;43.276;26.930;2023-03-15T02:24:51;98075.53;;;3.43;100.00
10658;BME280;5377;43.276;26.930;2023-03-15T02:27:25;98062.03;;;3.38;100.00
10658;BME280;5377;43.276;26.930;2023-03-15T02:29:54;98073.63;;;3.52;100.00
10658;BME280;5377;43.276;26.930;2023-03-15T02:32:21;98072.34;;;3.48;100.00
10658;BME280;5377;43.276;26.930;2023-03-15T02:34:48;98073.00;;;3.50;100.00
10658;BME280;5377;43.276;26.930;2023-03-15T02:37:14;98069.16;;;3.53;100.00
10658;BME280;5377;43.276;26.930;2023-03-15T02:39:41;98063.13;;;3.59;100.00
10658;BME280;5377;43.276;26.930;2023-03-15T02:42:08;98059.47;;;3.60;100.00
10658;BME280;5377;43.276;26.930;2023-03-15T02:44:38;98062.59;;;3.49;100.00
10658;BME280;5377;43.276;26.930;2023-03-15T02:47:10;98057.00;;;3.58;100.00
10658;BME280;5377;43.276;26.930;2023-03-15T02:49:41;98062.47;;;3.57;100.00
10658;BME280;5377;43.276;26.930;2023-03-15T02:52:09;98059.38;;;3.53;100.00
10658;BME280;5377;43.276;26.930;2023-03-15T02:54:36;98068.34;;;3.52;100.00
10658;BME280;5377;43.276;26.930;2023-03-15T02:57:04;98030.09;;;3.10;100.00
10658;BME280;5377;43.276;26.930;2023-03-15T02:59:30;98076.91;;;3.25;100.00
10658;BME280;5377;43.276;26.930;2023-03-15T03:01:58;98075.63;;;3.21;100.00
10658;BME280;5377;43.276;26.930;2023-03-15T03:04:25;98076.19;;;3.16;100.00
10658;BME280;5377;43.276;26.930;2023-03-15T03:06:52;98073.91;;;3.13;100.00
10658;BME280;5377;43.276;26.930;2023-03-15T03:09:19;98077.06;;;3.08;100.00
10658;BME280;5377;43.276;26.930;2023-03-15T03:11:46;98075.09;;;3.25;100.00
10658;BME280;5377;43.276;26.930;2023-03-15T03:14:12;98077.38;;;3.28;100.00
10658;BME280;5377;43.276;26.930;2023-03-15T03:16:39;98091.69;;;3.34;100.00
10658;BME280;5377;43.276;26.930;2023-03-15T03:19:09;98080.72;;;3.37;100.00
10658;BME280;5377;43.276;26.930;2023-03-15T03:21:36;98088.13;;;3.41;100.00
10658;BME280;5377;43.276;26.930;2023-03-15T03:24:03;98092.97;;;3.38;100.00
10658;BME280;5377;43.276;26.930;2023-03-15T03:26:30;98092.59;;;3.41;100.00
10658;BME280;5377;43.276;26.930;2023-03-15T03:28:57;98089.06;;;3.49;100.00
10658;BME280;5377;43.276;26.930;2023-03-15T03:31:25;98080.00;;;3.43;100.00
10658;BME280;5377;43.276;26.930;2023-03-15T03:33:54;98098.34;;;3.44;100.00
10658;BME280;5377;43.276;26.930;2023-03-15T03:36:22;98095.50;;;3.46;100.00
10658;BME280;5377;43.276;26.930;2023-03-15T03:38:49;98096.34;;;3.47;100.00
10658;BME280;5377;43.276;26.930;2023-03-15T03:41:18;98093.41;;;3.41;100.00
10658;BME280;5377;43.276;26.930;2023-03-15T03:43:45;98098.97;;;3.47;100.00
10658;BME280;5377;43.276;26.930;2023-03-15T03:46:12;98100.91;;;3.53;100.00
10658;BME280;5377;43.276;26.930;2023-03-15T03:48:38;98098.53;;;3.58;100.00
10658;BME280;5377;43.276;26.930;2023-03-15T03:51:05;98103.44;;;3.46;100.00
10658;BME280;5377;43.276;26.930;2023-03-15T03:53:33;98095.50;;;3.46;100.00
10658;BME280;5377;43.276;26.930;2023-03-15T03:56:03;98093.44;;;3.56;100.00
10658;BME280;5377;43.276;26.930;2023-03-15T03:58:30;98095.06;;;3.57;100.00
10658;BME280;5377;43.276;26.930;2023-03-15T04:00:56;98097.88;;;3.70;100.00
10658;BME280;5377;43.276;26.930;2023-03-15T04:03:23;98096.25;;;3.69;100.00
10658;BME280;5377;43.276;26.930;2023-03-15T04:05:51;98091.13;;;3.83;100.00
10658;BME280;5377;43.276;26.930;2023-03-15T04:08:18;98087.47;;;3.84;100.00
10658;BME280;5377;43.276;26.930;2023-03-15T04:10:50;98088.00;;;3.94;100.00
10658;BME280;5377;43.276;26.930;2023-03-15T04:13:17;98085.41;;;4.00;100.00
10658;BME280;5377;43.276;26.930;2023-03-15T04:15:44;98053.63;;;4.00;100.00
10658;BME280;5377;43.276;26.930;2023-03-15T04:18:11;98066.06;;;4.00;100.00
10658;BME280;5377;43.276;26.930;2023-03-15T04:20:38;98059.09;;;3.99;100.00
10658;BME280;5377;43.276;26.930;2023-03-15T04:23:11;98065.66;;;4.03;100.00
10658;BME280;5377;43.276;26.930;2023-03-15T04:25:38;98058.88;;;4.15;100.00
10658;BME280;5377;43.276;26.930;2023-03-15T04:28:06;98054.41;;;4.37;100.00
10658;BME280;5377;43.276;26.930;2023-03-15T04:30:35;98054.22;;;4.17;100.00
10658;BME280;5377;43.276;26.930;2023-03-15T04:33:02;98061.06;;;4.12;100.00
10658;BME280;5377;43.276;26.930;2023-03-15T04:35:31;98065.16;;;4.14;100.00
10658;BME280;5377;43.276;26.930;2023-03-15T04:37:59;98067.09;;;4.20;100.00
10658;BME280;5377;43.276;26.930;2023-03-15T04:40:26;98073.84;;;4.23;100.00
10658;BME280;5377;43.276;26.930;2023-03-15T04:42:53;98075.94;;;4.27;100.00
10658;BME280;5377;43.276;26.930;2023-03-15T04:45:22;98070.56;;;4.21;100.00
10658;BME280;5377;43.276;26.930;2023-03-15T04:47:49;98072.97;;;4.37;100.00
10658;BME280;5377;43.276;26.930;2023-03-15T04:50:16;98078.69;;;4.41;100.00
10658;BME280;5377;43.276;26.930;2023-03-15T04:52:43;98077.56;;;4.50;100.00
10658;BME280;5377;43.276;26.930;2023-03-15T04:55:10;98054.03;;;4.61;100.00
10658;BME280;5377;43.276;26.930;2023-03-15T04:57:37;98065.94;;;4.51;100.00
10658;BME280;5377;43.276;26.930;2023-03-15T05:00:05;98068.03;;;4.55;100.00
10658;BME280;5377;43.276;26.930;2023-03-15T05:02:36;98057.88;;;4.59;100.00
10658;BME280;5377;43.276;26.930;2023-03-15T05:05:06;98048.81;;;4.75;100.00
10658;BME280;5377;43.276;26.930;2023-03-15T05:07:34;98050.41;;;4.69;100.00
10658;BME280;5377;43.276;26.930;2023-03-15T05:10:01;98054.13;;;4.75;100.00
10658;BME280;5377;43.276;26.930;2023-03-15T05:12:28;98055.13;;;4.74;100.00
10658;BME280;5377;43.276;26.930;2023-03-15T05:14:55;98048.63;;;4.76;100.00
10658;BME280;5377;43.276;26.930;2023-03-15T05:17:22;98040.66;;;4.76;100.00
10658;BME280;5377;43.276;26.930;2023-03-15T05:19:50;98046.34;;;4.73;100.00
10658;BME280;5377;43.276;26.930;2023-03-15T05:22:17;98042.06;;;4.72;100.00
10658;BME280;5377;43.276;26.930;2023-03-15T05:24:44;98043.75;;;4.80;100.00
10658;BME280;5377;43.276;26.930;2023-03-15T05:27:11;98034.50;;;4.69;100.00
10658;BME280;5377;43.276;26.930;2023-03-15T05:29:38;98033.63;;;4.62;100.00
10658;BME280;5377;43.276;26.930;2023-03-15T05:32:05;98037.69;;;4.58;100.00
10658;BME280;5377;43.276;26.930;2023-03-15T05:34:32;98041.81;;;4.67;100.00
10658;BME280;5377;43.276;26.930;2023-03-15T05:37:00;98037.53;;;4.66;100.00
10658;BME280;5377;43.276;26.930;2023-03-15T05:39:27;98033.91;;;4.74;100.00
10658;BME280;5377;43.276;26.930;2023-03-15T05:41:54;98027.84;;;4.80;100.00
10658;BME280;5377;43.276;26.930;2023-03-15T05:44:21;98031.69;;;4.77;100.00
10658;BME280;5377;43.276;26.930;2023-03-15T05:46:48;98036.31;;;4.90;100.00
10658;BME280;5377;43.276;26.930;2023-03-15T05:49:15;98035.28;;;4.91;100.00
10658;BME280;5377;43.276;26.930;2023-03-15T05:51:42;98033.84;;;4.88;100.00
10658;BME280;5377;43.276;26.930;2023-03-15T05:54:10;98038.84;;;5.05;100.00
10658;BME280;5377;43.276;26.930;2023-03-15T05:56:37;98030.22;;;4.96;100.00
10658;BME280;5377;43.276;26.930;2023-03-15T05:59:04;98046.78;;;5.05;100.00
10658;BME280;5377;43.276;26.930;2023-03-15T06:01:31;98042.91;;;5.00;100.00
10658;BME280;5377;43.276;26.930;2023-03-15T06:03:57;98040.56;;;5.19;100.00
10658;BME280;5377;43.276;26.930;2023-03-15T06:06:24;98035.91;;;5.21;100.00
10658;BME280;5377;43.276;26.930;2023-03-15T06:08:51;98041.25;;;5.34;100.00
10658;BME280;5377;43.276;26.930;2023-03-15T06:11:19;98041.91;;;5.43;100.00
10658;BME280;5377;43.276;26.930;2023-03-15T06:13:46;98050.53;;;5.51;100.00
10658;BME280;5377;43.276;26.930;2023-03-15T06:16:13;98039.63;;;5.74;100.00
10658;BME280;5377;43.276;26.930;2023-03-15T06:18:39;98033.31;;;5.82;100.00
10658;BME280;5377;43.276;26.930;2023-03-15T06:21:06;98028.81;;;5.89;100.00
10658;BME280;5377;43.276;26.930;2023-03-15T06:23:33;98024.22;;;6.11;99.13
10658;BME280;5377;43.276;26.930;2023-03-15T06:25:59;98015.63;;;6.15;97.09
10658;BME280;5377;43.276;26.930;2023-03-15T06:28:28;98009.75;;;6.33;93.01
10658;BME280;5377;43.276;26.930;2023-03-15T06:30:54;98003.41;;;6.47;91.05
10658;BME280;5377;43.276;26.930;2023-03-15T06:33:21;98008.31;;;6.57;89.14
10658;BME280;5377;43.276;26.930;2023-03-15T06:35:48;98006.91;;;6.61;88.63
10658;BME280;5377;43.276;26.930;2023-03-15T06:38:15;98001.38;;;6.69;86.40
10658;BME280;5377;43.276;26.930;2023-03-15T06:40:42;97988.84;;;7.03;84.78
10658;BME280;5377;43.276;26.930;2023-03-15T06:43:09;97982.63;;;7.22;83.79
10658;BME280;5377;43.276;26.930;2023-03-15T06:45:44;97973.94;;;7.53;82.48
10658;BME280;5377;43.276;26.930;2023-03-15T06:48:11;97967.31;;;7.62;78.78
10658;BME280;5377;43.276;26.930;2023-03-15T06:50:38;97954.56;;;7.77;77.12
10658;BME280;5377;43.276;26.930;2023-03-15T06:53:05;97965.13;;;7.91;74.64
10658;BME280;5377;43.276;26.930;2023-03-15T06:55:32;97962.25;;;8.24;73.69
10658;BME280;5377;43.276;26.930;2023-03-15T06:57:59;97945.38;;;8.36;70.55
10658;BME280;5377;43.276;26.930;2023-03-15T07:00:26;97941.44;;;8.07;68.85
10658;BME280;5377;43.276;26.930;2023-03-15T07:02:54;97941.28;;;8.34;68.70
10658;BME280;5377;43.276;26.930;2023-03-15T07:05:21;97944.72;;;8.41;68.03
10658;BME280;5377;43.276;26.930;2023-03-15T07:07:48;97947.63;;;8.33;67.20
10658;BME280;5377;43.276;26.930;2023-03-15T07:10:15;97938.22;;;8.55;66.88
10658;BME280;5377;43.276;26.930;2023-03-15T07:12:42;97938.44;;;8.79;65.83
10658;BME280;5377;43.276;26.930;2023-03-15T07:15:10;97937.41;;;8.98;64.21
10658;BME280;5377;43.276;26.930;2023-03-15T07:17:37;97931.16;;;8.86;64.29
10658;BME280;5377;43.276;26.930;2023-03-15T07:20:06;97929.41;;;9.16;63.31
10658;BME280;5377;43.276;26.930;2023-03-15T07:22:33;97926.44;;;9.43;62.03
10658;BME280;5377;43.276;26.930;2023-03-15T07:25:00;97923.63;;;9.37;61.15
10658;BME280;5377;43.276;26.930;2023-03-15T07:27:27;97925.53;;;9.49;59.90
10658;BME280;5377;43.276;26.930;2023-03-15T07:29:54;97916.00;;;9.53;59.24
10658;BME280;5377;43.276;26.930;2023-03-15T07:32:21;97920.28;;;9.72;58.66
10658;BME280;5377;43.276;26.930;2023-03-15T07:34:47;97926.84;;;9.88;57.84
10658;BME280;5377;43.276;26.930;2023-03-15T07:37:16;97924.41;;;10.28;56.42
10658;BME280;5377;43.276;26.930;2023-03-15T07:39:42;97922.25;;;10.48;55.25
10658;BME280;5377;43.276;26.930;2023-03-15T07:42:09;97918.06;;;10.76;55.06
10658;BME280;5377;43.276;26.930;2023-03-15T07:44:36;97918.03;;;10.99;55.58
10658;BME280;5377;43.276;26.930;2023-03-15T07:47:03;97923.59;;;11.09;54.97
10658;BME280;5377;43.276;26.930;2023-03-15T07:49:30;97920.50;;;10.89;54.97
10658;BME280;5377;43.276;26.930;2023-03-15T07:51:58;97920.13;;;10.97;55.45
10658;BME280;5377;43.276;26.930;2023-03-15T07:54:27;97922.22;;;11.07;53.98
10658;BME280;5377;43.276;26.930;2023-03-15T07:56:56;97921.81;;;11.38;52.78
10658;BME280;5377;43.276;26.930;2023-03-15T07:59:22;97918.72;;;11.58;50.79
10658;BME280;5377;43.276;26.930;2023-03-15T08:01:49;97909.50;;;11.94;51.34
10658;BME280;5377;43.276;26.930;2023-03-15T08:04:16;97914.28;;;12.54;50.68
10658;BME280;5377;43.276;26.930;2023-03-15T08:06:42;97897.13;;;12.77;49.81
10658;BME280;5377;43.276;26.930;2023-03-15T08:09:09;97889.03;;;13.32;49.64
10658;BME280;5377;43.276;26.930;2023-03-15T08:11:37;97888.69;;;13.99;48.74
10658;BME280;5377;43.276;26.930;2023-03-15T08:14:04;97867.72;;;14.33;46.31
10658;BME280;5377;43.276;26.930;2023-03-15T08:16:31;97860.69;;;14.59;44.37
10658;BME280;5377;43.276;26.930;2023-03-15T08:18:58;97846.41;;;14.64;41.72
10658;BME280;5377;43.276;26.930;2023-03-15T08:21:24;97848.38;;;15.31;41.79
10658;BME280;5377;43.276;26.930;2023-03-15T08:23:51;97839.78;;;15.54;39.34
10658;BME280;5377;43.276;26.930;2023-03-15T08:26:18;97838.56;;;15.98;38.83
10658;BME280;5377;43.276;26.930;2023-03-15T08:28:46;97842.03;;;15.83;38.21
10658;BME280;5377;43.276;26.930;2023-03-15T08:31:13;97843.69;;;16.45;38.28
10658;BME280;5377;43.276;26.930;2023-03-15T08:33:40;97828.00;;;16.27;32.18
10658;BME280;5377;43.276;26.930;2023-03-15T08:36:07;97832.88;;;16.25;28.67
10658;BME280;5377;43.276;26.930;2023-03-15T08:38:34;97835.56;;;15.94;27.83
10658;BME280;5377;43.276;26.930;2023-03-15T08:41:01;97832.06;;;16.24;27.61
10658;BME280;5377;43.276;26.930;2023-03-15T08:43:28;97831.78;;;16.51;26.53
10658;BME280;5377;43.276;26.930;2023-03-15T08:45:56;97833.84;;;15.57;26.51
10658;BME280;5377;43.276;26.930;2023-03-15T08:48:23;97828.41;;;15.37;25.88
10658;BME280;5377;43.276;26.930;2023-03-15T08:50:50;97831.97;;;15.53;25.94
10658;BME280;5377;43.276;26.930;2023-03-15T08:53:16;97825.75;;;15.52;26.73
10658;BME280;5377;43.276;26.930;2023-03-15T08:55:43;97818.63;;;14.58;25.44
10658;BME280;5377;43.276;26.930;2023-03-15T08:58:10;97828.44;;;14.38;26.62
10658;BME280;5377;43.276;26.930;2023-03-15T09:00:38;97811.94;;;14.66;26.54
10658;BME280;5377;43.276;26.930;2023-03-15T09:03:06;97824.13;;;14.79;26.12
10658;BME280;5377;43.276;26.930;2023-03-15T09:05:33;97831.69;;;14.87;29.82
10658;BME280;5377;43.276;26.930;2023-03-15T09:08:00;97831.16;;;14.85;31.81
10658;BME280;5377;43.276;26.930;2023-03-15T09:10:27;97803.31;;;14.64;33.62
10658;BME280;5377;43.276;26.930;2023-03-15T09:12:53;97832.22;;;14.79;34.46
10658;BME280;5377;43.276;26.930;2023-03-15T09:15:20;97829.06;;;14.92;30.66
10658;BME280;5377;43.276;26.930;2023-03-15T09:17:48;97822.75;;;15.28;28.01
10658;BME280;5377;43.276;26.930;2023-03-15T09:20:17;97814.50;;;15.86;26.75
10658;BME280;5377;43.276;26.930;2023-03-15T09:22:49;97824.53;;;16.06;30.58
10658;BME280;5377;43.276;26.930;2023-03-15T09:25:17;97816.16;;;16.02;27.55
10658;BME280;5377;43.276;26.930;2023-03-15T09:27:44;97815.59;;;16.41;24.43
10658;BME280;5377;43.276;26.930;2023-03-15T09:30:12;97808.56;;;15.64;24.87
10658;BME280;5377;43.276;26.930;2023-03-15T09:32:39;97805.31;;;15.67;25.03
10658;BME280;5377;43.276;26.930;2023-03-15T09:35:07;97810.19;;;15.80;25.15
10658;BME280;5377;43.276;26.930;2023-03-15T09:37:37;97814.72;;;15.59;24.86
10658;BME280;5377;43.276;26.930;2023-03-15T09:40:05;97785.06;;;14.81;25.55
10658;BME280;5377;43.276;26.930;2023-03-15T09:42:44;97810.56;;;15.26;26.11
10658;BME280;5377;43.276;26.930;2023-03-15T09:45:21;97816.13;;;14.94;26.25
10658;BME280;5377;43.276;26.930;2023-03-15T09:47:57;97810.25;;;15.12;26.23
10658;BME280;5377;43.276;26.930;2023-03-15T09:50:28;97794.16;;;15.38;25.79
10658;BME280;5377;43.276;26.930;2023-03-15T09:53:00;97789.75;;;15.11;25.83
10658;BME280;5377;43.276;26.930;2023-03-15T09:55:30;97803.88;;;15.49;25.96
10658;BME280;5377;43.276;26.930;2023-03-15T09:57:58;97795.38;;;15.00;26.51
10658;BME280;5377;43.276;26.930;2023-03-15T10:00:30;97805.03;;;14.90;25.85
10658;BME280;5377;43.276;26.930;2023-03-15T10:03:00;97804.22;;;14.90;25.48
10658;BME280;5377;43.276;26.930;2023-03-15T10:05:38;97792.28;;;15.38;22.29
10658;BME280;5377;43.276;26.930;2023-03-15T10:08:10;97783.72;;;15.77;20.66
10658;BME280;5377;43.276;26.930;2023-03-15T10:10:45;97788.03;;;16.18;20.60
10658;BME280;5377;43.276;26.930;2023-03-15T10:13:24;97775.34;;;16.19;19.37
10658;BME280;5377;43.276;26.930;2023-03-15T10:16:01;97737.78;;;15.51;18.92
10658;BME280;5377;43.276;26.930;2023-03-15T10:18:41;97775.81;;;15.35;19.47
10658;BME280;5377;43.276;26.930;2023-03-15T10:21:16;97775.75;;;15.24;19.74
10658;BME280;5377;43.276;26.930;2023-03-15T10:23:53;97778.78;;;15.48;20.14
10658;BME280;5377;43.276;26.930;2023-03-15T10:26:24;97766.66;;;15.46;20.22
10658;BME280;5377;43.276;26.930;2023-03-15T10:28:53;97764.56;;;15.88;19.29
10658;BME280;5377;43.276;26.930;2023-03-15T10:31:24;97759.41;;;16.33;19.26
10658;BME280;5377;43.276;26.930;2023-03-15T10:33:52;97753.94;;;16.68;19.39
10658;BME280;5377;43.276;26.930;2023-03-15T10:36:22;97761.03;;;16.08;19.63
10658;BME280;5377;43.276;26.930;2023-03-15T10:38:49;97753.50;;;15.80;20.06
10658;BME280;5377;43.276;26.930;2023-03-15T10:41:29;97746.34;;;16.55;19.37
10658;BME280;5377;43.276;26.930;2023-03-15T10:44:04;97748.63;;;17.52;19.18
10658;BME280;5377;43.276;26.930;2023-03-15T10:46:30;97739.03;;;17.25;19.24
10658;BME280;5377;43.276;26.930;2023-03-15T10:48:59;97731.03;;;17.88;18.81
10658;BME280;5377;43.276;26.930;2023-03-15T10:51:39;97717.50;;;17.88;19.08
10658;BME280;5377;43.276;26.930;2023-03-15T10:54:11;97713.72;;;17.50;19.15
10658;BME280;5377;43.276;26.930;2023-03-15T10:56:45;97722.72;;;17.40;19.71
10658;BME280;5377;43.276;26.930;2023-03-15T10:59:17;97705.88;;;17.09;19.95
10658;BME280;5377;43.276;26.930;2023-03-15T11:01:46;97712.78;;;16.81;20.12
10658;BME280;5377;43.276;26.930;2023-03-15T11:04:16;97720.16;;;16.66;20.80
10658;BME280;5377;43.276;26.930;2023-03-15T11:06:45;97718.91;;;17.02;20.41
10658;BME280;5377;43.276;26.930;2023-03-15T11:09:14;97714.78;;;17.10;21.23
10658;BME280;5377;43.276;26.930;2023-03-15T11:11:54;97698.50;;;17.20;20.77
10658;BME280;5377;43.276;26.930;2023-03-15T11:14:22;97695.06;;;17.09;20.94
10658;BME280;5377;43.276;26.930;2023-03-15T11:16:51;97690.69;;;17.53;21.15
10658;BME280;5377;43.276;26.930;2023-03-15T11:19:21;97704.41;;;17.61;21.36
10658;BME280;5377;43.276;26.930;2023-03-15T11:21:49;97691.88;;;17.41;21.47
10658;BME280;5377;43.276;26.930;2023-03-15T11:24:24;97689.84;;;17.57;21.40
10658;BME280;5377;43.276;26.930;2023-03-15T11:26:53;97684.16;;;17.93;21.31
10658;BME280;5377;43.276;26.930;2023-03-15T11:29:23;97684.13;;;17.59;21.43
10658;BME280;5377;43.276;26.930;2023-03-15T11:31:51;97677.81;;;18.02;21.16
10658;BME280;5377;43.276;26.930;2023-03-15T11:34:25;97671.03;;;18.29;21.13
10658;BME280;5377;43.276;26.930;2023-03-15T11:36:58;97683.41;;;18.64;21.05
10658;BME280;5377;43.276;26.930;2023-03-15T11:39:33;97677.34;;;18.48;20.90
10658;BME280;5377;43.276;26.930;2023-03-15T11:42:07;97684.31;;;18.01;21.62
10658;BME280;5377;43.276;26.930;2023-03-15T11:44:37;97674.22;;;17.83;22.30
10658;BME280;5377;43.276;26.930;2023-03-15T11:47:10;97671.69;;;18.45;22.33
10658;BME280;5377;43.276;26.930;2023-03-15T11:49:43;97670.53;;;18.93;21.92
10658;BME280;5377;43.276;26.930;2023-03-15T11:52:12;97648.66;;;18.66;21.58
10658;BME280;5377;43.276;26.930;2023-03-15T11:54:40;97673.63;;;18.87;22.39
10658;BME280;5377;43.276;26.930;2023-03-15T11:57:44;97662.41;;;19.12;22.60
10658;BME280;5377;43.276;26.930;2023-03-15T12:00:24;97658.47;;;18.62;23.66
10658;BME280;5377;43.276;26.930;2023-03-15T12:02:53;97661.50;;;18.55;23.86
10658;BME280;5377;43.276;26.930;2023-03-15T12:05:42;97651.91;;;18.20;24.77
10658;BME280;5377;43.276;26.930;2023-03-15T12:08:19;97650.75;;;17.73;24.78
10658;BME280;5377;43.276;26.930;2023-03-15T12:10:46;97663.47;;;18.02;24.79
10658;BME280;5377;43.276;26.930;2023-03-15T12:13:22;97665.56;;;17.81;25.24
10658;BME280;5377;43.276;26.930;2023-03-15T12:15:50;97655.50;;;17.53;25.66
10658;BME280;5377;43.276;26.930;2023-03-15T12:18:33;97615.13;;;17.56;25.54
10658;BME280;5377;43.276;26.930;2023-03-15T12:21:13;97655.13;;;18.22;25.76
10658;BME280;5377;43.276;26.930;2023-03-15T12:23:47;97658.84;;;18.02;25.25
10658;BME280;5377;43.276;26.930;2023-03-15T12:26:36;97662.53;;;17.88;25.73
10658;BME280;5377;43.276;26.930;2023-03-15T12:29:13;97655.34;;;17.39;26.17
10658;BME280;5377;43.276;26.930;2023-03-15T12:31:49;97652.63;;;17.05;26.32
10658;BME280;5377;43.276;26.930;2023-03-15T12:37:07;97667.00;;;16.31;26.67
10658;BME280;5377;43.276;26.930;2023-03-15T12:39:39;97664.38;;;15.95;26.84
10658;BME280;5377;43.276;26.930;2023-03-15T12:45:32;97675.19;;;15.54;27.56
10658;BME280;5377;43.276;26.930;2023-03-15T12:48:25;97679.78;;;15.28;27.97
10658;BME280;5377;43.276;26.930;2023-03-15T12:50:58;97683.25;;;15.19;28.55
10658;BME280;5377;43.276;26.930;2023-03-15T12:53:35;97683.50;;;15.22;29.07
10658;BME280;5377;43.276;26.930;2023-03-15T12:59:29;97681.41;;;15.75;27.92
10658;BME280;5377;43.276;26.930;2023-03-15T13:02:00;97675.09;;;16.31;27.40
10658;BME280;5377;43.276;26.930;2023-03-15T13:04:28;97674.25;;;17.05;27.56
10658;BME280;5377;43.276;26.930;2023-03-15T13:07:06;97660.59;;;17.59;26.63
10658;BME280;5377;43.276;26.930;2023-03-15T13:09:59;97664.81;;;18.04;26.52
10658;BME280;5377;43.276;26.930;2023-03-15T13:12:34;97662.44;;;17.64;27.04
10658;BME280;5377;43.276;26.930;2023-03-15T13:15:10;97664.91;;;17.60;27.38
10658;BME280;5377;43.276;26.930;2023-03-15T13:17:45;97666.03;;;18.17;27.13
10658;BME280;5377;43.276;26.930;2023-03-15T13:20:37;97669.06;;;18.34;26.96
10658;BME280;5377;43.276;26.930;2023-03-15T13:23:13;97667.75;;;18.80;27.05